Time;durP1;ratioP1;P1;durP2;ratioP2;P2;SDS_P1;SDS_P2;PMS_P1;PMS_P2;Temp;Humidity;BMP_temperature;BMP_pressure;BME280_temperature;BME280_humidity;BME280_pressure;Samples;Min_cycle;Max_cycle;Signal;HPM_P1;HPM_P2
2021/04/30 00:00:32;;;;;;;24.95;12.05;;;7.30;99.90;;;;;;5086541;28;20016;-79
2021/04/30 00:02:58;;;;;;;30.25;15.32;;;7.30;99.90;;;;;;5085973;28;20053;-76
2021/04/30 00:05:26;;;;;;;23.40;12.35;;;7.30;99.90;;;;;;5080039;28;20384;-79
2021/04/30 00:07:52;;;;;;;26.35;14.07;;;7.40;99.90;;;;;;5082072;28;20466;-76
2021/04/30 00:10:18;;;;;;;31.20;14.45;;;7.40;99.90;;;;;;5078168;28;20094;-80
2021/04/30 00:12:43;;;;;;;37.88;16.45;;;7.30;99.90;;;;;;5086280;28;20035;-77
2021/04/30 00:15:10;;;;;;;28.67;12.75;;;7.30;99.90;;;;;;5079955;28;20020;-78
2021/04/30 00:17:35;;;;;;;35.17;16.23;;;7.10;99.90;;;;;;5083931;28;20368;-76
2021/04/30 00:20:01;;;;;;;30.63;14.30;;;7.40;99.90;;;;;;5076373;28;20027;-75
2021/04/30 00:22:27;;;;;;;31.00;18.88;;;7.40;99.90;;;;;;5071940;28;20113;-76
2021/04/30 00:24:52;;;;;;;29.15;12.80;;;7.40;99.90;;;;;;5090636;28;20028;-75
2021/04/30 00:27:18;;;;;;;34.15;13.60;;;7.40;99.90;;;;;;5090787;28;20071;-75
2021/04/30 00:29:44;;;;;;;21.55;10.35;;;7.40;99.90;;;;;;5077409;28;20031;-73
2021/04/30 00:32:12;;;;;;;35.50;15.82;;;7.50;99.90;;;;;;5084465;28;20032;-73
2021/04/30 00:34:40;;;;;;;32.65;16.98;;;7.50;99.90;;;;;;5082058;28;20032;-74
2021/04/30 00:37:05;;;;;;;31.13;14.65;;;7.40;99.90;;;;;;5082839;28;20045;-75
2021/04/30 00:39:31;;;;;;;33.67;16.38;;;7.50;99.90;;;;;;5086290;28;20119;-75
2021/04/30 00:41:57;;;;;;;32.20;15.88;;;7.40;99.90;;;;;;5083627;28;20036;-75
2021/04/30 00:44:22;;;;;;;30.95;12.73;;;7.50;99.90;;;;;;5080618;28;20016;-77
2021/04/30 00:46:48;;;;;;;34.55;14.48;;;7.50;99.90;;;;;;5087703;28;20035;-75
2021/04/30 00:49:14;;;;;;;35.90;15.95;;;7.50;99.90;;;;;;5078629;28;20059;-74
2021/04/30 00:51:39;;;;;;;33.88;15.32;;;7.50;99.90;;;;;;5086540;28;20039;-75
2021/04/30 00:54:05;;;;;;;26.35;13.23;;;7.50;99.90;;;;;;5072294;28;20135;-76
2021/04/30 00:56:33;;;;;;;27.30;12.38;;;7.50;99.90;;;;;;5073802;28;20028;-77
2021/04/30 00:59:00;;;;;;;31.02;15.35;;;7.50;99.90;;;;;;5086784;28;20138;-76
2021/04/30 01:01:26;;;;;;;45.17;21.33;;;7.50;99.90;;;;;;5082465;28;20688;-75
2021/04/30 01:03:52;;;;;;;34.70;14.05;;;7.40;99.90;;;;;;5076727;28;20107;-78
2021/04/30 01:06:20;;;;;;;35.00;15.25;;;7.20;99.90;;;;;;5074500;28;20036;-76
2021/04/30 01:08:46;;;;;;;35.72;14.30;;;7.20;99.90;;;;;;5086385;28;20028;-76
2021/04/30 01:11:12;;;;;;;36.35;17.10;;;7.20;99.90;;;;;;5091886;28;20028;-76
2021/04/30 01:13:38;;;;;;;30.67;14.10;;;7.10;99.90;;;;;;5080487;28;20090;-76
2021/04/30 01:16:04;;;;;;;29.35;12.50;;;7.20;99.90;;;;;;5078445;28;20020;-77
2021/04/30 01:18:43;;;;;;;26.15;12.43;;;7.10;99.90;;;;;;5088830;28;20032;-77
2021/04/30 01:21:11;;;;;;;33.58;13.65;;;7.10;99.90;;;;;;5084505;28;20032;-77
2021/04/30 01:23:48;;;;;;;41.72;16.60;;;7.00;99.90;;;;;;5074766;28;20032;-80
2021/04/30 01:26:15;;;;;;;36.40;15.35;;;6.80;99.90;;;;;;5085198;28;20028;-75
2021/04/30 01:28:41;;;;;;;30.30;13.55;;;6.80;99.90;;;;;;5081163;28;20524;-76
2021/04/30 01:31:07;;;;;;;35.60;14.57;;;6.80;99.90;;;;;;5086656;28;20046;-76
2021/04/30 01:33:33;;;;;;;46.92;19.70;;;6.70;99.90;;;;;;5084700;28;20066;-76
2021/04/30 01:35:58;;;;;;;36.72;17.02;;;6.70;99.90;;;;;;5086863;28;20024;-75
2021/04/30 01:38:24;;;;;;;46.80;22.17;;;6.70;99.90;;;;;;5073544;28;20417;-76
2021/04/30 01:40:50;;;;;;;51.38;21.95;;;6.70;99.90;;;;;;5080410;28;20488;-77
2021/04/30 01:43:18;;;;;;;36.65;18.27;;;6.60;99.90;;;;;;5073952;28;20538;-77
2021/04/30 01:45:59;;;;;;;45.35;21.98;;;6.70;99.90;;;;;;5076069;28;20020;-77
2021/04/30 01:48:30;;;;;;;51.08;20.00;;;6.70;99.90;;;;;;5085243;28;20130;-76
2021/04/30 01:50:58;;;;;;;35.72;14.93;;;6.70;99.90;;;;;;5072985;28;20789;-77
2021/04/30 01:53:26;;;;;;;55.80;21.35;;;6.70;99.90;;;;;;5070918;28;20040;-76
2021/04/30 01:55:52;;;;;;;47.33;28.80;;;6.70;99.90;;;;;;5075115;28;20504;-78
2021/04/30 01:58:19;;;;;;;56.50;26.08;;;6.70;99.90;;;;;;5083885;28;20040;-78
2021/04/30 02:00:45;;;;;;;42.30;18.27;;;6.60;99.90;;;;;;5082203;28;20149;-77
2021/04/30 02:03:13;;;;;;;57.47;25.20;;;6.70;99.90;;;;;;5081972;28;20504;-76
2021/04/30 02:05:39;;;;;;;40.67;17.83;;;6.70;99.90;;;;;;5070462;28;20043;-76
2021/04/30 02:08:09;;;;;;;42.85;17.52;;;6.80;99.90;;;;;;5087239;28;20099;-76
2021/04/30 02:10:35;;;;;;;55.33;25.38;;;6.70;99.90;;;;;;5079716;28;20024;-76
2021/04/30 02:13:01;;;;;;;46.42;18.10;;;6.70;99.90;;;;;;5077939;28;20364;-76
2021/04/30 02:15:35;;;;;;;36.38;16.55;;;6.70;99.90;;;;;;5076662;28;20480;-78
2021/04/30 02:18:01;;;;;;;47.05;18.30;;;6.80;99.90;;;;;;5081742;28;20039;-78
2021/04/30 02:20:27;;;;;;;47.45;20.65;;;6.80;99.90;;;;;;5082174;28;20035;-75
2021/04/30 02:22:53;;;;;;;57.53;24.42;;;6.80;99.90;;;;;;5073546;28;20027;-77
2021/04/30 02:25:20;;;;;;;56.38;24.88;;;6.80;99.90;;;;;;5085550;28;20379;-76
2021/04/30 02:27:47;;;;;;;70.93;28.40;;;6.80;99.90;;;;;;5073646;28;20040;-79
2021/04/30 02:30:15;;;;;;;76.97;43.03;;;6.70;99.90;;;;;;5075184;28;20046;-76
2021/04/30 02:32:42;;;;;;;66.25;30.00;;;6.70;99.90;;;;;;5083567;28;20032;-76
2021/04/30 02:35:17;;;;;;;71.20;29.02;;;6.70;99.90;;;;;;5069665;28;20379;-76
2021/04/30 02:37:44;;;;;;;67.85;25.77;;;6.70;99.90;;;;;;5071675;28;20035;-76
2021/04/30 02:40:11;;;;;;;63.35;26.92;;;6.80;99.90;;;;;;5073215;28;20031;-76
2021/04/30 02:42:37;;;;;;;49.65;24.08;;;6.80;99.90;;;;;;5081779;28;20020;-78
2021/04/30 02:45:07;;;;;;;69.38;29.23;;;6.80;99.90;;;;;;5077071;28;20025;-76
2021/04/30 02:47:34;;;;;;;65.88;27.70;;;6.90;99.90;;;;;;5079894;28;20433;-77
2021/04/30 02:50:01;;;;;;;59.88;26.67;;;6.80;99.90;;;;;;5076395;28;20548;-76
2021/04/30 02:52:27;;;;;;;53.53;24.00;;;6.90;99.90;;;;;;5079508;28;20038;-76
2021/04/30 02:54:53;;;;;;;65.85;27.15;;;6.90;99.90;;;;;;5076278;28;20051;-76
2021/04/30 02:57:19;;;;;;;65.55;22.90;;;6.80;99.90;;;;;;5068851;28;20516;-76
2021/04/30 02:59:46;;;;;;;66.53;27.08;;;6.80;99.90;;;;;;5081329;28;20020;-76
2021/04/30 03:02:13;;;;;;;59.90;24.38;;;6.80;99.90;;;;;;5077927;28;20082;-76
2021/04/30 03:04:39;;;;;;;71.05;26.23;;;6.80;99.90;;;;;;5080457;28;20392;-75
2021/04/30 03:07:05;;;;;;;67.95;28.05;;;6.80;99.90;;;;;;5083347;28;20072;-74
2021/04/30 03:09:31;;;;;;;54.20;23.75;;;6.70;99.90;;;;;;5080842;28;20055;-74
2021/04/30 03:11:57;;;;;;;69.72;30.63;;;6.80;99.90;;;;;;5077303;28;20028;-76
2021/04/30 03:14:23;;;;;;;63.80;26.95;;;6.90;99.90;;;;;;5090878;28;20020;-74
2021/04/30 03:16:49;;;;;;;64.10;26.27;;;6.80;99.90;;;;;;5078703;28;20028;-74
2021/04/30 03:19:15;;;;;;;58.92;25.20;;;6.90;99.90;;;;;;5083238;28;20040;-74
2021/04/30 03:21:41;;;;;;;47.33;22.77;;;6.80;99.90;;;;;;5080680;28;20034;-76
2021/04/30 03:24:07;;;;;;;64.13;28.30;;;6.90;99.90;;;;;;5082070;28;20029;-75
2021/04/30 03:26:33;;;;;;;39.65;15.57;;;6.90;99.90;;;;;;5084385;28;20469;-74
2021/04/30 03:28:59;;;;;;;64.07;25.75;;;7.00;99.90;;;;;;5075568;28;20017;-76
2021/04/30 03:31:26;;;;;;;56.92;25.63;;;6.90;99.90;;;;;;5080650;28;20029;-74
2021/04/30 03:33:51;;;;;;;66.32;23.75;;;6.90;99.90;;;;;;5087158;28;20020;-76
2021/04/30 03:36:19;;;;;;;68.00;27.15;;;6.90;99.90;;;;;;5080920;28;20131;-75
2021/04/30 03:38:46;;;;;;;58.65;25.30;;;6.80;99.90;;;;;;5080038;28;20406;-76
2021/04/30 03:41:12;;;;;;;67.57;25.35;;;6.90;99.90;;;;;;5080448;28;20069;-76
2021/04/30 03:43:37;;;;;;;65.53;23.02;;;7.00;99.90;;;;;;5092259;28;20480;-76
2021/04/30 03:46:03;;;;;;;65.20;25.65;;;7.00;99.90;;;;;;5081277;28;20031;-76
2021/04/30 03:48:29;;;;;;;64.30;24.40;;;6.90;99.90;;;;;;5081308;28;20039;-75
2021/04/30 03:50:54;;;;;;;46.83;20.85;;;7.00;99.90;;;;;;5077082;28;20048;-74
2021/04/30 03:53:21;;;;;;;60.33;22.42;;;6.90;99.90;;;;;;5088870;28;20031;-74
2021/04/30 03:55:47;;;;;;;67.80;27.02;;;6.90;99.90;;;;;;5075315;28;20041;-74
2021/04/30 03:58:13;;;;;;;72.80;26.15;;;6.80;99.90;;;;;;5100062;28;20537;-73
2021/04/30 04:00:38;;;;;;;63.15;21.13;;;6.90;99.90;;;;;;5085714;28;20028;-72
2021/04/30 04:03:04;;;;;;;74.68;25.15;;;6.80;99.90;;;;;;5084805;28;20044;-74
2021/04/30 04:05:30;;;;;;;67.63;27.05;;;6.90;99.90;;;;;;5086500;28;20028;-72
2021/04/30 04:07:55;;;;;;;70.80;26.02;;;6.80;99.90;;;;;;5080692;28;20037;-74
2021/04/30 04:10:21;;;;;;;74.57;27.77;;;6.80;99.90;;;;;;5084901;28;20028;-72
2021/04/30 04:12:46;;;;;;;73.55;27.13;;;6.80;99.90;;;;;;5085260;28;20046;-74
2021/04/30 04:15:12;;;;;;;69.30;26.95;;;6.80;99.90;;;;;;5081243;28;20035;-76
2021/04/30 04:17:38;;;;;;;69.00;27.42;;;6.90;99.90;;;;;;5074096;28;20032;-75
2021/04/30 04:20:04;;;;;;;66.47;24.50;;;6.90;99.90;;;;;;5080930;28;20070;-75
2021/04/30 04:22:31;;;;;;;78.47;26.92;;;6.90;99.90;;;;;;5080967;28;20038;-76
2021/04/30 04:24:56;;;;;;;70.13;28.35;;;6.90;99.90;;;;;;5081601;28;20020;-76
2021/04/30 04:27:22;;;;;;;44.08;19.92;;;6.90;99.90;;;;;;5071670;28;20040;-76
2021/04/30 04:29:48;;;;;;;71.40;28.95;;;6.80;99.90;;;;;;5082789;28;20121;-75
2021/04/30 04:32:14;;;;;;;71.00;27.55;;;6.70;99.90;;;;;;5087609;28;20040;-75
2021/04/30 04:34:40;;;;;;;70.72;28.45;;;6.70;99.90;;;;;;5084893;28;20036;-71
2021/04/30 04:37:05;;;;;;;76.05;28.25;;;6.70;99.90;;;;;;5085682;28;20024;-74
2021/04/30 04:39:32;;;;;;;75.53;27.77;;;6.70;99.90;;;;;;5085779;28;20028;-74
2021/04/30 04:42:04;;;;;;;80.18;26.80;;;6.70;99.90;;;;;;5085543;28;20020;-71
2021/04/30 04:44:30;;;;;;;88.90;30.33;;;6.80;99.90;;;;;;5083143;28;20463;-72
2021/04/30 04:46:57;;;;;;;77.50;28.88;;;6.70;99.90;;;;;;5086572;28;20039;-73
2021/04/30 04:49:23;;;;;;;70.70;26.95;;;6.70;99.90;;;;;;5080413;28;20383;-75
2021/04/30 04:51:49;;;;;;;72.38;28.20;;;6.70;99.90;;;;;;5094811;28;20455;-71
2021/04/30 04:54:15;;;;;;;83.90;29.10;;;6.70;99.90;;;;;;5078831;28;20063;-74
2021/04/30 04:56:41;;;;;;;53.45;19.17;;;6.60;99.90;;;;;;5078222;28;20028;-72
2021/04/30 04:59:07;;;;;;;87.07;29.25;;;6.80;99.90;;;;;;5082212;28;20073;-74
2021/04/30 05:01:33;;;;;;;70.10;26.85;;;6.90;99.90;;;;;;5083970;28;20102;-74
2021/04/30 05:04:00;;;;;;;66.18;23.88;;;6.80;99.90;;;;;;5084965;28;20379;-73
2021/04/30 05:06:26;;;;;;;83.25;28.27;;;7.00;99.90;;;;;;5081674;28;20024;-74
2021/04/30 05:08:51;;;;;;;74.95;26.40;;;7.00;99.90;;;;;;5082338;28;20020;-72
2021/04/30 05:11:17;;;;;;;73.00;25.27;;;6.90;99.90;;;;;;5082238;28;20103;-77
2021/04/30 05:13:43;;;;;;;77.85;22.38;;;6.90;99.90;;;;;;5083408;28;20032;-74
2021/04/30 05:16:10;;;;;;;67.40;24.08;;;6.90;99.90;;;;;;5082177;28;20532;-73
2021/04/30 05:18:36;;;;;;;88.07;28.70;;;6.90;99.90;;;;;;5083826;28;20111;-77
2021/04/30 05:21:01;;;;;;;85.90;30.83;;;6.90;99.90;;;;;;5080544;28;20027;-76
2021/04/30 05:23:28;;;;;;;86.38;29.67;;;6.80;99.90;;;;;;5080515;28;20028;-70
2021/04/30 05:25:54;;;;;;;87.55;31.38;;;6.80;99.90;;;;;;5084195;28;20017;-73
2021/04/30 05:28:20;;;;;;;96.63;30.27;;;6.80;99.90;;;;;;5071153;28;20123;-72
2021/04/30 05:30:46;;;;;;;88.93;29.90;;;6.80;99.90;;;;;;5086244;28;20424;-72
2021/04/30 05:33:12;;;;;;;83.63;27.88;;;7.00;99.90;;;;;;5081283;28;20455;-71
2021/04/30 05:35:38;;;;;;;85.25;29.45;;;7.00;99.90;;;;;;5077173;28;20020;-70
2021/04/30 05:38:05;;;;;;;64.43;23.42;;;6.80;99.90;;;;;;5084433;28;20051;-71
2021/04/30 05:40:31;;;;;;;62.20;20.77;;;6.80;99.90;;;;;;5080925;28;20016;-73
2021/04/30 05:42:57;;;;;;;73.00;24.13;;;6.90;99.90;;;;;;5074979;28;20028;-71
2021/04/30 05:45:22;;;;;;;90.85;30.52;;;6.90;99.90;;;;;;5076683;28;20464;-72
2021/04/30 05:47:48;;;;;;;76.82;25.15;;;7.00;99.90;;;;;;5078338;28;20394;-70
2021/04/30 05:50:14;;;;;;;62.22;21.52;;;7.10;99.90;;;;;;5074333;28;20457;-71
2021/04/30 05:52:40;;;;;;;88.47;26.48;;;7.00;99.90;;;;;;5085314;28;20119;-77
2021/04/30 05:55:07;;;;;;;82.20;29.48;;;7.10;99.90;;;;;;5073116;28;20405;-71
2021/04/30 05:57:33;;;;;;;85.15;29.15;;;7.10;99.90;;;;;;5073749;28;20047;-69
2021/04/30 05:59:59;;;;;;;83.97;29.65;;;7.20;99.90;;;;;;5082675;28;20024;-73
2021/04/30 06:02:25;;;;;;;86.30;27.73;;;7.20;99.90;;;;;;5081130;28;20052;-73
2021/04/30 06:04:50;;;;;;;82.97;28.52;;;7.10;99.90;;;;;;5082204;28;20039;-71
2021/04/30 06:07:16;;;;;;;86.82;29.65;;;7.20;99.90;;;;;;5082046;28;20114;-69
2021/04/30 06:09:42;;;;;;;81.35;28.30;;;7.10;99.90;;;;;;5084246;28;20483;-71
2021/04/30 06:12:09;;;;;;;57.13;20.17;;;7.20;99.90;;;;;;5083169;28;20036;-69
2021/04/30 06:14:34;;;;;;;75.07;26.23;;;7.20;99.90;;;;;;5076555;28;20102;-69
2021/04/30 06:17:01;;;;;;;77.30;26.55;;;7.20;99.90;;;;;;5080339;28;20108;-70
2021/04/30 06:19:27;;;;;;;85.90;29.77;;;7.10;99.90;;;;;;5079219;28;20034;-69
2021/04/30 06:21:53;;;;;;;79.63;29.50;;;7.10;99.90;;;;;;5072515;28;20670;-69
2021/04/30 06:24:19;;;;;;;61.20;22.30;;;7.20;99.90;;;;;;5081908;28;20043;-69
2021/04/30 06:26:46;;;;;;;83.20;27.08;;;7.20;99.90;;;;;;5079247;28;20025;-69
2021/04/30 06:29:12;;;;;;;81.55;27.85;;;7.20;99.90;;;;;;5077443;28;20086;-69
2021/04/30 06:31:38;;;;;;;82.75;28.75;;;7.30;99.90;;;;;;5079702;28;20024;-69
2021/04/30 06:34:04;;;;;;;81.80;27.55;;;7.30;99.90;;;;;;5085277;28;20490;-71
2021/04/30 06:36:30;;;;;;;74.53;26.75;;;7.30;99.90;;;;;;5082818;28;20028;-69
2021/04/30 06:38:56;;;;;;;74.20;26.92;;;7.50;99.90;;;;;;5076617;28;20077;-69
2021/04/30 06:41:21;;;;;;;77.35;26.10;;;7.60;99.90;;;;;;5073427;28;20429;-70
2021/04/30 06:43:47;;;;;;;77.70;26.30;;;7.60;99.90;;;;;;5085912;28;20020;-70
2021/04/30 06:46:13;;;;;;;75.20;24.75;;;7.50;99.90;;;;;;5076575;28;20086;-74
2021/04/30 06:48:39;;;;;;;70.45;24.75;;;7.60;99.90;;;;;;5076563;28;20040;-71
2021/04/30 06:51:05;;;;;;;72.15;25.70;;;7.40;99.90;;;;;;5080545;28;20039;-72
2021/04/30 06:53:31;;;;;;;65.43;23.13;;;7.40;99.90;;;;;;5078339;28;20024;-71
2021/04/30 06:55:56;;;;;;;67.80;24.17;;;7.40;99.90;;;;;;5078211;28;20036;-72
2021/04/30 06:58:23;;;;;;;68.65;24.10;;;7.50;99.90;;;;;;5078015;28;20032;-70
2021/04/30 07:00:49;;;;;;;59.45;20.42;;;7.60;99.90;;;;;;5073771;28;20020;-70
2021/04/30 07:03:14;;;;;;;75.50;24.73;;;7.60;99.90;;;;;;5078896;28;20028;-70
2021/04/30 07:05:40;;;;;;;49.00;17.92;;;7.60;99.90;;;;;;5081437;28;20026;-70
2021/04/30 07:08:06;;;;;;;67.75;23.02;;;7.60;99.90;;;;;;5073722;28;20032;-70
2021/04/30 07:10:32;;;;;;;65.93;21.63;;;7.50;99.90;;;;;;5083306;28;20491;-73
2021/04/30 07:12:58;;;;;;;78.10;23.58;;;7.30;99.90;;;;;;5077505;28;20024;-70
2021/04/30 07:15:24;;;;;;;66.72;24.88;;;7.60;99.90;;;;;;5074000;28;20433;-70
2021/04/30 07:17:50;;;;;;;69.47;24.83;;;7.60;99.90;;;;;;5082787;28;20101;-69
2021/04/30 07:20:16;;;;;;;61.83;17.90;;;7.90;99.90;;;;;;5074291;28;20028;-70
2021/04/30 07:22:41;;;;;;;67.85;26.25;;;7.90;99.90;;;;;;5077690;28;20046;-70
2021/04/30 07:25:08;;;;;;;73.70;24.33;;;7.90;99.90;;;;;;5083396;28;20047;-70
2021/04/30 07:27:33;;;;;;;66.50;23.92;;;7.80;99.90;;;;;;5079066;28;20036;-70
2021/04/30 07:29:59;;;;;;;67.70;24.23;;;7.90;99.90;;;;;;5081610;28;20027;-70
2021/04/30 07:32:26;;;;;;;68.03;23.88;;;7.90;99.90;;;;;;5073268;28;20373;-71
2021/04/30 07:34:52;;;;;;;40.95;15.32;;;7.60;99.90;;;;;;5076103;28;20027;-70
2021/04/30 07:37:18;;;;;;;63.45;19.92;;;7.80;99.90;;;;;;5075839;28;20237;-70
2021/04/30 07:39:44;;;;;;;74.28;24.95;;;7.70;99.90;;;;;;5081576;28;20388;-71
2021/04/30 07:42:10;;;;;;;71.05;25.83;;;7.70;99.90;;;;;;5090472;28;20061;-70
2021/04/30 07:44:36;;;;;;;71.45;24.05;;;7.80;99.90;;;;;;5081749;28;20036;-70
2021/04/30 07:47:05;;;;;;;62.83;23.48;;;7.80;99.90;;;;;;5076039;28;20120;-70
2021/04/30 07:49:31;;;;;;;67.75;24.63;;;7.90;99.90;;;;;;5075007;28;20480;-71
2021/04/30 07:51:57;;;;;;;71.80;25.20;;;7.90;99.90;;;;;;5076578;28;20069;-72
2021/04/30 07:54:24;;;;;;;72.70;25.50;;;8.00;99.90;;;;;;5080842;28;20593;-72
2021/04/30 07:56:50;;;;;;;63.13;21.65;;;8.00;99.90;;;;;;5091467;28;20024;-71
2021/04/30 07:59:16;;;;;;;73.53;24.98;;;8.20;99.90;;;;;;5084201;28;20028;-72
2021/04/30 08:01:42;;;;;;;64.60;22.40;;;8.00;99.90;;;;;;5083128;28;20017;-71
2021/04/30 08:04:07;;;;;;;68.88;24.67;;;8.10;99.90;;;;;;5072599;28;20032;-71
2021/04/30 08:06:33;;;;;;;73.50;25.00;;;8.20;99.90;;;;;;5084069;28;20024;-71
2021/04/30 08:08:59;;;;;;;61.50;20.35;;;8.00;99.90;;;;;;5078703;28;20028;-71
2021/04/30 08:11:25;;;;;;;65.40;23.83;;;8.00;99.90;;;;;;5082029;28;20028;-72
2021/04/30 08:13:51;;;;;;;57.80;19.88;;;8.10;99.90;;;;;;5075370;28;20017;-72
2021/04/30 08:16:16;;;;;;;58.30;20.55;;;8.40;99.90;;;;;;5080761;28;20434;-72
2021/04/30 08:18:43;;;;;;;65.05;25.85;;;8.50;99.90;;;;;;5069094;28;20092;-72
2021/04/30 08:21:09;;;;;;;60.13;19.08;;;8.30;99.90;;;;;;5081248;28;20534;-72
2021/04/30 08:23:35;;;;;;;63.65;24.10;;;8.40;99.90;;;;;;5080099;28;20028;-72
2021/04/30 08:26:01;;;;;;;65.97;24.48;;;8.30;99.90;;;;;;5080298;28;20032;-72
2021/04/30 08:28:27;;;;;;;84.28;26.10;;;8.30;99.90;;;;;;5082738;28;20402;-72
2021/04/30 08:30:53;;;;;;;65.32;24.23;;;8.30;99.90;;;;;;5086477;28;20028;-72
2021/04/30 08:33:24;;;;;;;66.30;24.20;;;8.30;99.90;;;;;;5068733;28;20468;-72
2021/04/30 08:35:50;;;;;;;67.43;24.75;;;8.50;99.90;;;;;;5075044;28;20108;-72
2021/04/30 08:38:15;;;;;;;62.20;22.55;;;8.40;99.90;;;;;;5086580;28;20111;-72
2021/04/30 08:40:41;;;;;;;67.60;24.05;;;8.70;99.90;;;;;;5087174;28;20145;-72
2021/04/30 08:43:07;;;;;;;71.25;24.05;;;8.80;99.90;;;;;;5076286;28;20028;-72
2021/04/30 08:45:32;;;;;;;55.00;20.63;;;8.80;99.90;;;;;;5086848;28;20043;-72
2021/04/30 08:47:58;;;;;;;62.03;22.42;;;8.80;99.90;;;;;;5080504;28;20037;-72
2021/04/30 08:50:23;;;;;;;45.03;15.35;;;8.70;99.90;;;;;;5075899;28;20029;-72
2021/04/30 08:52:49;;;;;;;63.72;23.77;;;8.80;99.90;;;;;;5082089;28;20435;-71
2021/04/30 08:55:17;;;;;;;60.10;24.00;;;8.80;99.90;;;;;;5076580;28;20532;-72
2021/04/30 08:57:44;;;;;;;45.65;17.60;;;8.80;99.90;;;;;;5076288;28;20476;-72
2021/04/30 09:00:12;;;;;;;55.30;19.05;;;8.90;99.90;;;;;;5077339;28;20021;-72
2021/04/30 09:02:38;;;;;;;46.90;17.05;;;8.80;99.90;;;;;;5069732;28;20039;-71
2021/04/30 09:05:09;;;;;;;57.15;20.60;;;9.00;99.90;;;;;;5072022;28;20013;-72
2021/04/30 09:07:43;;;;;;;64.88;22.33;;;9.10;99.90;;;;;;5077227;28;20043;-72
2021/04/30 09:10:13;;;;;;;60.90;22.42;;;9.10;99.90;;;;;;5080082;28;20016;-72
2021/04/30 09:12:40;;;;;;;61.60;22.67;;;9.20;99.90;;;;;;5075758;28;20122;-72
2021/04/30 09:15:16;;;;;;;40.33;13.90;;;9.10;99.90;;;;;;5074897;28;20024;-72
2021/04/30 09:17:42;;;;;;;41.45;16.33;;;9.10;99.90;;;;;;5074647;28;20027;-72
2021/04/30 09:20:08;;;;;;;59.00;19.63;;;9.00;99.90;;;;;;5071110;28;20186;-72
2021/04/30 09:22:40;;;;;;;60.97;19.52;;;9.00;99.90;;;;;;5078086;28;20027;-72
2021/04/30 09:25:11;;;;;;;56.30;16.27;;;8.80;99.90;;;;;;5080773;28;20127;-72
2021/04/30 09:27:37;;;;;;;61.55;22.55;;;8.80;99.90;;;;;;5077230;28;20388;-72
2021/04/30 09:30:27;;;;;;;60.28;18.83;;;8.80;99.90;;;;;;5077401;28;20023;-72
2021/04/30 09:33:12;;;;;;;42.08;16.67;;;8.80;99.90;;;;;;5071891;28;20028;-71
2021/04/30 09:35:40;;;;;;;53.88;16.67;;;8.70;99.90;;;;;;5075969;28;20016;-72
2021/04/30 09:38:34;;;;;;;65.22;22.67;;;8.70;99.90;;;;;;5073187;28;20024;-72
2021/04/30 09:41:10;;;;;;;59.45;17.63;;;8.80;99.90;;;;;;5075624;28;20021;-72
2021/04/30 09:43:51;;;;;;;62.58;23.70;;;8.90;99.90;;;;;;5073565;28;20078;-72
2021/04/30 09:46:35;;;;;;;67.72;21.65;;;9.10;99.90;;;;;;5088028;28;20545;-72
2021/04/30 09:49:04;;;;;;;52.38;18.70;;;9.30;99.90;;;;;;5081583;28;20089;-72
2021/04/30 09:51:44;;;;;;;58.58;18.88;;;9.30;99.90;;;;;;5074260;28;20387;-72
2021/04/30 09:54:15;;;;;;;;;;;9.10;99.90;;;;;;5074555;28;20457;-71
2021/04/30 09:56:41;;;;;;;59.83;20.23;;;9.10;99.90;;;;;;5082567;28;19915;-71
2021/04/30 09:59:07;;;;;;;61.10;21.85;;;8.90;99.90;;;;;;5081316;28;20024;-72
2021/04/30 10:01:33;;;;;;;60.80;22.25;;;8.90;99.90;;;;;;5085255;28;20024;-72
2021/04/30 10:03:59;;;;;;;65.57;22.90;;;9.00;99.90;;;;;;5075286;28;20043;-70
2021/04/30 10:06:25;;;;;;;58.28;21.40;;;9.10;99.90;;;;;;5082247;28;20024;-71
2021/04/30 10:09:06;;;;;;;62.83;22.13;;;9.00;99.90;;;;;;5067030;28;20086;-71
2021/04/30 10:11:33;;;;;;;49.88;17.65;;;9.30;99.90;;;;;;5080251;28;20029;-71
2021/04/30 10:13:59;;;;;;;54.95;20.48;;;9.40;99.90;;;;;;5091804;28;20074;-72
2021/04/30 10:16:25;;;;;;;53.60;20.77;;;9.50;99.90;;;;;;5072931;28;20463;-73
2021/04/30 10:18:51;;;;;;;57.03;19.70;;;9.50;99.90;;;;;;5077147;28;20020;-71
2021/04/30 10:21:18;;;;;;;51.95;20.98;;;9.60;99.90;;;;;;5085304;28;20472;-71
2021/04/30 10:23:50;;;;;;;40.08;14.70;;;9.50;99.90;;;;;;5080370;28;20375;-71
2021/04/30 10:26:18;;;;;;;52.33;20.10;;;9.30;99.90;;;;;;5083624;28;20476;-71
2021/04/30 10:28:56;;;;;;;56.83;20.73;;;9.60;99.90;;;;;;5081212;28;20036;-71
2021/04/30 10:31:33;;;;;;;64.35;21.45;;;9.90;99.90;;;;;;5068774;28;20157;-71
2021/04/30 10:34:04;;;;;;;50.60;18.75;;;9.90;99.90;;;;;;5082076;28;20427;-71
2021/04/30 10:36:38;;;;;;;51.95;19.65;;;9.90;99.90;;;;;;5074820;28;20072;-71
2021/04/30 10:39:05;;;;;;;51.55;20.15;;;10.20;99.90;;;;;;5082399;28;20439;-71
2021/04/30 10:41:36;;;;;;;45.30;15.13;;;10.50;99.90;;;;;;5079870;28;20383;-73
2021/04/30 10:44:22;;;;;;;40.78;16.38;;;10.50;99.90;;;;;;5084139;28;20016;-71
2021/04/30 10:47:14;;;;;;;44.50;18.67;;;10.40;99.90;;;;;;5080458;28;20024;-71
2021/04/30 10:49:41;;;;;;;53.65;20.52;;;10.10;99.90;;;;;;5071052;28;20648;-71
2021/04/30 10:52:07;;;;;;;48.55;18.83;;;9.70;99.90;;;;;;5072237;28;20401;-71
2021/04/30 10:54:37;;;;;;;51.42;21.08;;;9.90;99.90;;;;;;5081817;28;20058;-73
2021/04/30 10:57:04;;;;;;;33.58;13.68;;;10.00;99.90;;;;;;5074238;28;20016;-71
2021/04/30 10:59:36;;;;;;;50.95;19.25;;;9.90;99.90;;;;;;5074931;28;20041;-71
2021/04/30 11:02:10;;;;;;;46.72;18.98;;;9.90;99.90;;;;;;5075414;28;20020;-71
2021/04/30 11:04:36;;;;;;;44.33;18.65;;;9.90;99.90;;;;;;5075344;28;20037;-71
2021/04/30 11:07:04;;;;;;;47.72;19.55;;;10.10;99.90;;;;;;5078756;28;20085;-71
2021/04/30 11:09:34;;;;;;;43.55;19.05;;;10.40;99.90;;;;;;5076119;28;20020;-74
2021/04/30 11:12:02;;;;;;;42.90;19.80;;;10.70;99.90;;;;;;5087197;28;20029;-74
2021/04/30 11:14:31;;;;;;;48.28;20.90;;;10.40;99.90;;;;;;5080540;28;20430;-74
2021/04/30 11:16:58;;;;;;;48.88;21.17;;;10.60;99.90;;;;;;5077150;28;20435;-74
2021/04/30 11:19:27;;;;;;;39.42;18.27;;;11.00;99.90;;;;;;5078199;28;20564;-74
2021/04/30 11:22:17;;;;;;;47.92;18.98;;;11.30;99.90;;;;;;5076015;28;20115;-74
2021/04/30 11:24:46;;;;;;;41.80;18.70;;;11.40;99.90;;;;;;5077291;28;20047;-73
2021/04/30 11:27:11;;;;;;;41.33;18.23;;;11.60;99.90;;;;;;5079613;28;20048;-74
2021/04/30 11:29:38;;;;;;;39.67;17.42;;;10.90;99.90;;;;;;5081511;28;20044;-74
2021/04/30 11:32:27;;;;;;;42.35;18.75;;;10.90;99.90;;;;;;5079620;28;20020;-74
2021/04/30 11:35:00;;;;;;;41.67;16.45;;;10.90;99.90;;;;;;5085160;28;20385;-72
2021/04/30 11:37:28;;;;;;;38.50;15.18;;;10.80;99.90;;;;;;5077495;28;20028;-74
2021/04/30 11:39:56;;;;;;;42.97;19.15;;;10.50;99.90;;;;;;5074354;28;20162;-73
2021/04/30 11:42:28;;;;;;;36.42;14.95;;;10.20;99.90;;;;;;5079271;28;20492;-72
2021/04/30 11:44:53;;;;;;;45.50;19.70;;;10.20;99.90;;;;;;5084351;28;20069;-73
2021/04/30 11:47:30;;;;;;;34.67;15.80;;;10.60;99.90;;;;;;5084719;28;20056;-74
2021/04/30 11:49:57;;;;;;;40.30;18.60;;;11.10;99.90;;;;;;5083336;28;20020;-74
2021/04/30 11:52:30;;;;;;;39.83;19.00;;;11.60;99.90;;;;;;5087238;28;20028;-74
2021/04/30 11:55:16;;;;;;;45.75;19.00;;;11.90;99.90;;;;;;5075536;28;20044;-74
2021/04/30 11:57:54;;;;;;;33.90;15.27;;;11.90;99.90;;;;;;5078306;28;20024;-74
2021/04/30 12:00:22;;;;;;;40.95;18.27;;;12.00;99.90;;;;;;5081215;28;20024;-74
2021/04/30 12:02:58;;;;;;;42.45;18.52;;;12.60;99.90;;;;;;5081277;28;20047;-74
2021/04/30 12:05:24;;;;;;;45.20;19.67;;;13.00;99.90;;;;;;5084454;28;20073;-74
2021/04/30 12:07:50;;;;;;;35.88;16.98;;;13.20;99.90;;;;;;5077824;28;20422;-74
2021/04/30 12:10:21;;;;;;;42.70;19.10;;;13.10;99.90;;;;;;5080319;28;20028;-74
2021/04/30 12:12:47;;;;;;;40.95;20.25;;;13.50;99.90;;;;;;5067268;28;20325;-74
2021/04/30 12:15:18;;;;;;;34.08;15.88;;;13.20;99.90;;;;;;5078524;28;20029;-74
2021/04/30 12:17:47;;;;;;;41.15;17.80;;;13.00;99.90;;;;;;5075186;28;20708;-74
2021/04/30 12:20:13;;;;;;;43.47;20.38;;;13.30;99.90;;;;;;5071839;28;20423;-74
2021/04/30 12:22:56;;;;;;;45.03;18.13;;;13.30;99.90;;;;;;5079412;28;20099;-74
2021/04/30 12:25:27;;;;;;;42.33;18.20;;;13.70;99.90;;;;;;5078002;28;20020;-74
2021/04/30 12:28:12;;;;;;;42.97;19.35;;;13.50;99.90;;;;;;5074709;28;20110;-72
2021/04/30 12:30:39;;;;;;;39.78;18.88;;;13.20;99.90;;;;;;5081331;28;20020;-72
2021/04/30 12:33:04;;;;;;;39.35;17.90;;;13.20;99.90;;;;;;5084734;28;20023;-72
2021/04/30 12:35:30;;;;;;;35.28;16.88;;;13.20;99.90;;;;;;5080939;28;20352;-72
2021/04/30 12:37:56;;;;;;;36.55;16.92;;;13.40;99.90;;;;;;5081200;28;20119;-72